Time;durP1;ratioP1;P1;durP2;ratioP2;P2;SDS_P1;SDS_P2;PMS_P1;PMS_P2;Temp;Humidity;BMP_temperature;BMP_pressure;BME280_temperature;BME280_humidity;BME280_pressure;Samples;Min_cycle;Max_cycle;Signal;HPM_P1;HPM_P2
2022/01/24 00:00:15;;;;;;;1.40;1.10;;;-3.10;1.40;;;-2.37;100.00;96883.78;620320;226;32379;-77
2022/01/24 00:02:57;;;;;;;1.15;1.10;;;-3.10;1.40;;;-2.52;100.00;96883.42;643444;217;31643;-77
2022/01/24 00:05:41;;;;;;;3.90;1.30;;;-3.30;1.40;;;-2.51;100.00;96883.31;630904;222;31735;-74
2022/01/24 00:08:25;;;;;;;1.70;1.55;;;-3.40;1.40;;;-2.57;100.00;96880.70;646674;212;31606;-76
2022/01/24 00:11:10;;;;;;;1.50;1.08;;;-3.40;1.40;;;-2.60;100.00;96883.86;647913;216;31516;-77
2022/01/24 00:14:28;;;;;;;1.80;1.60;;;-3.50;1.40;;;-2.63;100.00;96886.95;618733;222;31841;-76
2022/01/24 00:16:47;;;;;;;1.58;1.48;;;-3.50;1.40;;;-2.73;100.00;96883.34;646908;216;31552;-76
2022/01/24 00:27:44;;;;;;;1.00;1.00;;;-3.30;1.40;;;-2.66;100.00;96885.36;636573;220;31735;-76
2022/01/24 00:30:25;;;;;;;1.58;1.48;;;-3.40;1.40;;;-2.72;100.00;96893.41;646864;214;31570;-76
2022/01/24 00:35:52;;;;;;;2.20;0.98;;;-3.50;1.40;;;-2.82;100.00;96882.90;647247;216;31565;-76
2022/01/24 00:38:33;;;;;;;1.70;1.60;;;-3.60;1.40;;;-2.86;100.00;96881.48;646982;212;31552;-76
2022/01/24 00:41:18;;;;;;;1.73;1.62;;;-3.70;1.40;;;-2.82;100.00;96881.94;620085;226;32385;-76
2022/01/24 00:46:53;;;;;;;1.35;1.23;;;-3.60;1.40;;;-2.93;100.00;96874.56;646725;216;31545;-76
2022/01/24 00:49:47;;;;;;;1.05;0.90;;;-3.70;1.40;;;-2.97;100.00;96876.59;648115;216;31516;-76
2022/01/24 00:55:09;;;;;;;1.27;1.12;;;-3.80;1.40;;;-3.02;100.00;96872.17;647230;216;31648;-76
2022/01/24 00:57:51;;;;;;;1.35;1.23;;;-3.80;1.40;;;-3.05;100.00;96876.70;636685;220;31934;-76
2022/01/24 01:00:33;;;;;;;1.50;1.10;;;-3.80;1.40;;;-3.05;100.00;96875.20;647193;216;42194;-75
2022/01/24 01:03:19;;;;;;;1.20;1.10;;;-3.90;1.40;;;-3.03;100.00;96870.34;647026;216;42314;-77
2022/01/24 01:06:05;;;;;;;1.00;0.90;;;-3.80;1.40;;;-2.94;100.00;96871.27;641698;212;32292;-76
2022/01/24 01:19:53;;;;;;;1.50;0.93;;;-3.60;1.40;;;-2.91;100.00;96857.17;647125;216;31512;-76
2022/01/24 01:22:34;;;;;;;1.70;1.60;;;-3.70;1.40;;;-2.92;100.00;96852.39;648690;212;42195;-77
2022/01/24 01:25:19;;;;;;;4.25;2.55;;;-3.80;1.40;;;-2.98;100.00;96853.19;646491;216;31651;-76
2022/01/24 01:28:01;;;;;;;2.85;1.15;;;-3.90;1.40;;;-3.07;100.00;96847.61;647204;216;31629;-77
2022/01/24 01:30:47;;;;;;;2.30;2.10;;;-3.50;1.40;;;-3.12;100.00;96847.33;648659;216;31506;-77
2022/01/24 01:39:04;;;;;;;2.10;1.40;;;-3.80;1.40;;;-3.17;100.00;96843.24;646833;216;32145;-77
2022/01/24 01:55:13;;;;;;;1.30;1.20;;;-3.40;1.40;;;-2.93;100.00;96823.45;646689;212;31516;-76
2022/01/24 01:57:40;;;;;;;2.33;1.15;;;-3.40;1.40;;;-3.04;100.00;96833.16;646670;216;32295;-74
2022/01/24 02:00:28;;;;;;;2.03;0.73;;;-3.70;1.40;;;-3.13;100.00;96834.97;646987;216;31622;-77
2022/01/24 02:03:19;;;;;;;2.45;1.73;;;-3.90;1.40;;;-3.20;100.00;96833.69;647238;216;31508;-73
2022/01/24 02:06:07;;;;;;;1.17;1.08;;;-3.90;1.40;;;-3.35;100.00;96828.33;642038;216;31717;-76
2022/01/24 02:08:49;;;;;;;3.80;2.00;;;-4.00;1.40;;;-3.41;100.00;96830.52;647582;216;31542;-77
2022/01/24 02:11:31;;;;;;;1.30;1.20;;;-4.10;1.40;;;-3.44;100.00;96833.28;647668;216;31554;-77
2022/01/24 02:14:17;;;;;;;2.08;0.75;;;-4.10;1.40;;;-3.48;100.00;96835.17;620136;226;31840;-78
2022/01/24 02:17:00;;;;;;;2.10;1.40;;;-4.10;1.40;;;-3.55;100.00;96830.70;647281;216;31588;-77
2022/01/24 02:20:04;;;;;;;1.83;1.33;;;-4.10;1.40;;;-3.57;100.00;96835.44;648164;216;31686;-76
2022/01/24 02:22:48;;;;;;;1.48;1.37;;;-4.10;1.40;;;-3.59;100.00;96827.97;647473;216;31563;-76
2022/01/24 02:25:27;;;;;;;1.87;1.30;;;-4.10;1.40;;;-3.59;100.00;96824.86;618327;225;32083;-74
2022/01/24 02:28:15;;;;;;;2.10;1.50;;;-4.20;1.40;;;-3.62;100.00;96819.63;647416;216;31591;-76
2022/01/24 02:31:19;;;;;;;1.30;1.00;;;-4.10;1.40;;;-3.60;100.00;96809.03;647282;212;31530;-77
2022/01/24 02:35:57;;;;;;;1.30;1.20;;;-4.20;1.40;;;-3.55;100.00;96798.86;647984;216;31579;-76
2022/01/24 02:39:01;;;;;;;2.08;1.92;;;-4.30;1.40;;;-3.62;100.00;96797.13;647088;216;31642;-77
2022/01/24 02:49:53;;;;;;;1.80;1.50;;;-4.30;1.40;;;-3.60;100.00;96780.48;647561;212;31549;-75
2022/01/24 02:52:41;;;;;;;0.90;0.57;;;-4.30;1.40;;;-3.63;100.00;96779.30;619978;226;31958;-74
2022/01/24 02:55:28;;;;;;;1.40;0.90;;;-4.40;1.40;;;-3.64;100.00;96776.49;619558;226;32005;-77
2022/01/24 02:58:10;;;;;;;3.92;1.42;;;-4.40;1.40;;;-3.66;100.00;96779.18;619003;226;31856;-76
2022/01/24 03:00:54;;;;;;;1.75;1.65;;;-4.30;1.40;;;-3.67;100.00;96771.47;646416;216;31557;-76
2022/01/24 03:06:18;;;;;;;1.90;1.80;;;-4.30;1.40;;;-3.75;100.00;96765.55;646203;216;31564;-74
2022/01/24 03:08:59;;;;;;;2.30;2.05;;;-4.50;1.40;;;-3.72;100.00;96766.92;647539;212;31539;-74
2022/01/24 03:14:30;;;;;;;1.80;0.90;;;-4.30;1.40;;;-3.83;100.00;96760.88;648160;216;31550;-77
2022/01/24 03:17:14;;;;;;;2.10;1.40;;;-4.50;1.40;;;-3.87;100.00;96763.23;620211;225;31906;-75
2022/01/24 03:20:02;;;;;;;3.20;1.35;;;-4.50;1.40;;;-3.90;100.00;96764.98;647001;212;31558;-77
2022/01/24 03:22:49;;;;;;;1.92;1.33;;;-4.50;1.40;;;-3.85;100.00;96758.05;619879;226;31924;-75
2022/01/24 03:25:31;;;;;;;0.80;0.80;;;-4.50;1.40;;;-3.76;100.00;96760.30;646390;216;31532;-74
2022/01/24 03:28:13;;;;;;;2.50;1.50;;;-4.40;1.40;;;-3.83;100.00;96757.16;646885;216;31871;-74
2022/01/24 03:30:59;;;;;;;1.80;1.00;;;-4.40;1.40;;;-3.87;100.00;96754.72;646848;216;31545;-77
2022/01/24 03:35:57;;;;;;;1.40;1.05;;;-4.50;1.40;;;-3.83;100.00;96746.55;645725;216;31862;-77
2022/01/24 03:38:44;;;;;;;3.03;1.65;;;-4.40;1.40;;;-3.75;100.00;96744.67;646841;216;31479;-75
2022/01/24 03:41:32;;;;;;;2.72;1.27;;;-4.40;1.40;;;-3.76;100.00;96750.67;647563;212;31625;-76
2022/01/24 03:44:20;;;;;;;0.70;0.70;;;-4.40;1.40;;;-3.81;100.00;96749.33;646141;216;31568;-76
2022/01/24 03:47:19;;;;;;;2.30;1.00;;;-4.50;1.40;;;-3.92;100.00;96751.70;647585;216;31558;-74
2022/01/24 03:49:47;;;;;;;3.50;1.10;;;-4.60;1.40;;;-3.99;100.00;96746.95;649507;216;31561;-77
2022/01/24 03:52:34;;;;;;;0.88;0.88;;;-4.60;1.40;;;-3.82;100.00;96755.23;647172;216;31564;-73
2022/01/24 03:55:15;;;;;;;1.70;1.60;;;-4.50;1.40;;;-3.81;100.00;96753.37;647010;216;31554;-73
2022/01/24 03:58:00;;;;;;;2.90;1.50;;;-4.50;1.40;;;-3.93;100.00;96751.63;618111;222;31922;-73
2022/01/24 04:00:42;;;;;;;2.15;1.15;;;-4.50;1.40;;;-3.98;100.00;96739.27;646993;212;31525;-74
2022/01/24 04:03:23;;;;;;;0.80;0.62;;;-4.50;1.40;;;-4.06;100.00;96737.04;620024;225;31977;-73
2022/01/24 04:06:07;;;;;;;1.30;1.20;;;-4.50;1.40;;;-4.07;100.00;96738.52;640721;212;31721;-77
2022/01/24 04:08:55;;;;;;;1.45;1.35;;;-4.70;1.40;;;-4.09;100.00;96734.96;648377;216;31528;-74
2022/01/24 04:11:39;;;;;;;2.72;1.25;;;-4.60;1.40;;;-4.14;100.00;96730.20;647540;216;32171;-73
2022/01/24 04:14:29;;;;;;;2.00;1.00;;;-4.60;1.40;;;-4.08;100.00;96728.88;645727;212;42291;-74
2022/01/24 04:17:19;;;;;;;1.60;0.93;;;-4.70;1.40;;;-4.08;100.00;96720.01;646909;212;32163;-76
2022/01/24 04:22:51;;;;;;;1.77;1.40;;;-4.60;1.40;;;-4.11;100.00;96718.77;632040;221;32292;-76
2022/01/24 04:25:33;;;;;;;2.90;1.73;;;-4.60;1.40;;;-4.11;100.00;96715.66;646496;212;31595;-75
2022/01/24 04:28:21;;;;;;;0.80;0.60;;;-4.70;1.40;;;-4.14;100.00;96716.34;619949;226;44548;-77
2022/01/24 04:31:04;;;;;;;1.05;0.77;;;-4.70;1.40;;;-4.20;100.00;96722.28;645731;216;31959;-74
2022/01/24 04:35:57;;;;;;;2.55;1.23;;;-4.80;1.40;;;-4.30;100.00;96717.89;643466;216;31550;-77
2022/01/24 04:38:39;;;;;;;2.70;1.40;;;-4.70;1.40;;;-4.28;100.00;96715.66;616427;227;31865;-77
2022/01/24 04:41:27;;;;;;;4.40;1.00;;;-4.80;1.40;;;-4.34;100.00;96718.81;647171;212;31588;-75
2022/01/24 04:44:29;;;;;;;1.70;1.60;;;-4.90;1.40;;;-4.37;100.00;96718.48;646441;212;31519;-73
2022/01/24 04:47:01;;;;;;;2.30;1.40;;;-4.80;1.40;;;-4.39;100.00;96718.81;646623;212;31574;-77
2022/01/24 04:52:44;;;;;;;3.12;1.62;;;-4.90;1.40;;;-4.37;100.00;96720.95;620486;226;32082;-76
2022/01/24 04:55:21;;;;;;;1.67;1.58;;;-4.90;1.40;;;-4.39;100.00;96728.30;647594;212;32276;-77
2022/01/24 04:58:09;;;;;;;0.73;0.73;;;-5.00;1.40;;;-4.35;100.00;96729.73;647188;216;31641;-76
2022/01/24 05:00:50;;;;;;;1.20;1.10;;;-5.00;1.40;;;-4.32;100.00;96732.22;644979;216;31554;-73
2022/01/24 05:03:32;;;;;;;1.00;1.00;;;-4.90;1.40;;;-4.34;100.00;96726.53;646749;216;31526;-76
2022/01/24 05:06:14;;;;;;;0.80;0.80;;;-4.80;1.40;;;-4.31;100.00;96725.11;616410;223;32096;-75
2022/01/24 05:08:58;;;;;;;1.00;0.80;;;-4.80;1.40;;;-4.32;100.00;96731.10;647672;212;31549;-77
2022/01/24 05:11:54;;;;;;;3.25;1.20;;;-4.90;1.40;;;-4.33;100.00;96726.86;646215;212;31686;-76
2022/01/24 05:23:28;;;;;;;3.35;0.95;;;-4.90;1.40;;;-4.39;100.00;96725.12;647421;216;42193;-77
2022/01/24 05:26:06;;;;;;;1.95;1.40;;;-5.00;1.40;;;-4.44;100.00;96734.68;646832;216;32104;-77
2022/01/24 05:28:50;;;;;;;2.37;1.95;;;-5.00;1.40;;;-4.49;100.00;96730.54;645853;216;31604;-73
2022/01/24 05:31:38;;;;;;;3.10;2.00;;;-5.00;1.40;;;-4.52;100.00;96734.25;646268;212;31545;-77
2022/01/24 05:35:52;;;;;;;1.70;1.48;;;-5.10;1.40;;;-4.50;100.00;96739.82;647770;216;31656;-77
2022/01/24 05:38:34;;;;;;;3.92;1.30;;;-5.10;1.40;;;-4.50;100.00;96738.44;647379;212;42259;-76
2022/01/24 05:41:22;;;;;;;1.70;1.20;;;-4.90;1.40;;;-4.52;100.00;96741.64;646838;212;31525;-73
2022/01/24 05:44:09;;;;;;;1.40;0.90;;;-5.00;1.40;;;-4.52;100.00;96744.36;620393;226;31868;-76
2022/01/24 05:46:53;;;;;;;1.90;1.27;;;-5.10;1.40;;;-4.51;100.00;96740.95;645719;216;31647;-74
2022/01/24 05:49:35;;;;;;;2.30;1.80;;;-5.10;1.40;;;-4.46;100.00;96743.28;645745;215;31757;-73
2022/01/24 05:52:17;;;;;;;3.00;1.00;;;-5.00;1.40;;;-4.50;100.00;96742.66;646735;212;31602;-73
2022/01/24 05:54:58;;;;;;;3.78;1.67;;;-5.10;1.40;;;-4.57;100.00;96743.70;647338;216;31900;-75
2022/01/24 05:57:40;;;;;;;3.62;1.70;;;-5.10;1.40;;;-4.48;100.00;96747.25;645646;212;31628;-75
2022/01/24 06:00:22;;;;;;;2.10;2.00;;;-5.10;1.40;;;-4.54;100.00;96743.58;619848;226;32020;-75
2022/01/24 06:03:03;;;;;;;1.40;1.10;;;-5.00;1.40;;;-4.58;100.00;96746.67;645823;216;31908;-74
2022/01/24 06:05:47;;;;;;;5.70;1.12;;;-5.20;1.40;;;-4.64;100.00;96747.68;644074;216;31702;-76
2022/01/24 06:11:09;;;;;;;7.65;1.62;;;-5.20;1.40;;;-4.40;100.00;96750.32;645814;212;31561;-75
2022/01/24 06:13:54;;;;;;;2.90;1.00;;;-5.00;1.40;;;-4.24;100.00;96749.16;620175;226;32054;-73
2022/01/24 06:16:41;;;;;;;1.60;1.50;;;-4.90;1.40;;;-4.31;100.00;96750.99;619730;226;32925;-76
2022/01/24 06:19:29;;;;;;;6.45;1.23;;;-4.90;1.40;;;-4.39;100.00;96749.70;645693;216;31646;-75
2022/01/24 06:22:11;;;;;;;0.77;0.62;;;-5.00;1.40;;;-4.47;100.00;96746.07;619034;225;32174;-76
2022/01/24 06:24:52;;;;;;;1.80;1.70;;;-5.10;1.40;;;-4.42;100.00;96741.89;647539;216;31595;-76
2022/01/24 06:27:40;;;;;;;1.10;1.00;;;-5.00;1.40;;;-4.44;100.00;96747.09;646644;216;31555;-77
2022/01/24 06:35:53;;;;;;;1.27;0.93;;;-5.20;1.40;;;-4.53;100.00;96754.16;645969;212;32371;-74
2022/01/24 06:38:37;;;;;;;2.00;1.00;;;-5.20;1.40;;;-4.57;100.00;96766.64;647982;216;31840;-77
2022/01/24 06:41:29;;;;;;;2.70;2.17;;;-5.20;1.40;;;-4.51;100.00;96776.73;646037;216;31813;-75
2022/01/24 06:44:07;;;;;;;1.50;1.33;;;-5.10;1.40;;;-4.49;100.00;96776.65;646781;212;31565;-73
2022/01/24 06:46:48;;;;;;;1.30;1.20;;;-4.90;1.40;;;-4.33;100.00;96788.00;619626;222;31979;-73
2022/01/24 06:49:31;;;;;;;1.92;1.20;;;-4.80;1.40;;;-4.22;100.00;96787.77;646109;212;31640;-75
2022/01/24 06:52:13;;;;;;;4.47;1.90;;;-4.70;1.40;;;-4.14;100.00;96784.90;619032;222;31876;-75
2022/01/24 06:54:54;;;;;;;2.55;1.45;;;-4.60;1.40;;;-4.04;100.00;96792.41;647482;216;31553;-75
2022/01/24 06:57:41;;;;;;;1.60;1.50;;;-4.60;1.40;;;-4.03;100.00;96790.34;647789;216;31639;-77
2022/01/24 07:00:31;;;;;;;5.50;2.10;;;-4.60;1.40;;;-3.99;100.00;96791.84;646433;212;33014;-73
2022/01/24 07:03:11;;;;;;;1.30;0.70;;;-4.50;1.40;;;-3.93;100.00;96793.91;645584;212;31582;-75
2022/01/24 07:05:52;;;;;;;4.47;1.33;;;-4.50;1.40;;;-3.84;100.00;96790.08;647171;216;31574;-76
2022/01/24 07:11:17;;;;;;;3.30;3.10;;;-4.40;1.40;;;-3.66;100.00;96794.15;647706;216;42709;-81
2022/01/24 07:14:10;;;;;;;2.28;2.17;;;-4.20;1.40;;;-3.58;100.00;96791.52;646757;212;31565;-76
2022/01/24 07:19:42;;;;;;;2.20;1.83;;;-4.10;1.40;;;-3.48;100.00;96793.89;617886;226;32412;-76
2022/01/24 07:22:30;;;;;;;1.30;1.20;;;-4.10;1.40;;;-3.39;100.00;96794.34;646310;212;31591;-76
2022/01/24 07:25:14;;;;;;;2.85;1.20;;;-4.00;1.40;;;-3.33;100.00;96797.84;647462;216;31687;-76
2022/01/24 07:27:59;;;;;;;4.43;3.00;;;-4.00;1.40;;;-3.17;100.00;96799.02;647936;216;31537;-73
2022/01/24 07:30:41;;;;;;;5.10;2.08;;;-3.90;1.40;;;-3.08;100.00;96806.39;641798;217;31525;-76
2022/01/24 07:35:51;;;;;;;2.40;2.20;;;-3.80;1.40;;;-2.86;100.00;96800.08;646359;212;42807;-75
2022/01/24 07:38:33;;;;;;;2.60;2.40;;;-3.70;1.40;;;-2.82;100.00;96799.09;645934;212;32308;-73
2022/01/24 07:41:25;;;;;;;3.35;2.45;;;-3.60;1.40;;;-2.72;100.00;96799.92;640973;218;31624;-79
2022/01/24 07:44:10;;;;;;;2.10;1.90;;;-3.50;1.40;;;-2.64;100.00;96800.60;647140;212;32133;-75
2022/01/24 07:46:51;;;;;;;4.60;1.80;;;-3.50;1.40;;;-2.57;100.00;96808.23;647284;216;32272;-74
2022/01/24 07:49:34;;;;;;;3.58;1.65;;;-3.40;1.40;;;-2.30;100.00;96805.11;645993;216;31867;-75
2022/01/24 07:52:17;;;;;;;3.50;3.20;;;-3.10;1.40;;;-1.72;100.00;96812.94;619545;225;32262;-80
2022/01/24 07:55:05;;;;;;;2.62;2.53;;;-2.70;1.40;;;-1.32;100.00;96820.56;647066;212;31563;-74
2022/01/24 07:57:47;;;;;;;4.85;2.87;;;-2.40;1.40;;;-1.13;100.00;96827.39;646246;216;31654;-76
2022/01/24 08:00:31;;;;;;;2.20;2.10;;;-2.40;1.40;;;-0.87;100.00;96832.48;646652;212;31946;-75
2022/01/24 08:03:14;;;;;;;2.50;1.67;;;-2.20;1.40;;;-0.70;100.00;96834.37;647121;212;31567;-76
2022/01/24 08:05:56;;;;;;;4.47;2.22;;;-2.00;1.40;;;-0.56;100.00;96830.33;617758;222;31988;-73
2022/01/24 08:08:40;;;;;;;3.65;3.15;;;-1.70;1.40;;;-0.67;100.00;96831.05;647046;216;33280;-76
2022/01/24 08:11:22;;;;;;;2.70;2.50;;;-1.60;1.40;;;-0.34;100.00;96826.83;631797;220;32614;-76
2022/01/24 08:14:04;;;;;;;5.90;2.40;;;-1.40;1.40;;;-0.26;100.00;96828.95;646769;216;32302;-75
2022/01/24 08:16:46;;;;;;;7.45;2.58;;;-1.40;1.40;;;-0.46;100.00;96823.13;647471;216;31911;-73
2022/01/24 08:19:28;;;;;;;5.28;2.33;;;-1.40;1.40;;;-0.53;100.00;96822.28;645703;212;31586;-75
2022/01/24 08:22:09;;;;;;;3.22;2.45;;;-1.40;1.40;;;-0.55;100.00;96821.61;646143;212;43008;-75
2022/01/24 08:24:51;;;;;;;1.90;1.80;;;-1.40;1.40;;;-0.64;100.00;96814.37;646332;216;42199;-76
2022/01/24 08:30:11;;;;;;;4.75;3.03;;;-1.20;1.40;;;-0.40;100.00;96818.97;648347;216;31601;-75
2022/01/24 08:32:53;;;;;;;4.60;2.90;;;-1.10;1.40;;;0.23;100.00;96821.56;647575;212;31586;-74
2022/01/24 08:35:51;;;;;;;2.80;2.00;;;-0.80;1.40;;;0.08;100.00;96830.58;647382;212;31658;-74
2022/01/24 08:38:36;;;;;;;2.60;2.50;;;-0.90;1.40;;;0.25;100.00;96823.45;646455;212;32193;-74
2022/01/24 08:41:23;;;;;;;2.60;2.40;;;-0.70;1.40;;;0.30;100.00;96827.57;645507;216;32664;-76
2022/01/24 08:44:18;;;;;;;3.90;3.60;;;-0.60;1.40;;;0.74;100.00;96830.29;647225;216;42266;-74
2022/01/24 08:46:45;;;;;;;3.25;3.05;;;-0.40;1.40;;;1.04;100.00;96824.80;647036;212;31563;-76
2022/01/24 08:49:24;;;;;;;3.80;3.20;;;-0.30;1.40;;;0.92;100.00;96823.23;647125;216;31593;-76
2022/01/24 08:52:06;;;;;;;2.65;1.80;;;-0.30;1.40;;;1.31;100.00;96825.91;646059;216;31607;-74
2022/01/24 08:54:48;;;;;;;4.50;3.00;;;-0.10;1.40;;;1.04;100.00;96825.98;646677;216;31559;-75
2022/01/24 08:57:30;;;;;;;2.10;1.90;;;-0.30;1.40;;;0.27;100.00;96821.91;645585;216;35916;-74
2022/01/24 09:00:13;;;;;;;4.18;3.28;;;-0.50;1.40;;;0.34;100.00;96824.78;646709;216;31577;-76
2022/01/24 09:02:54;;;;;;;1.95;1.70;;;-0.50;1.40;;;0.50;100.00;96829.54;646935;212;31903;-74
2022/01/24 09:05:36;;;;;;;4.43;4.03;;;-0.30;1.40;;;0.48;100.00;96829.19;641006;216;43787;-77
2022/01/24 09:08:18;;;;;;;3.20;2.75;;;-0.10;1.40;;;0.40;100.00;96831.39;647185;212;31710;-74
2022/01/24 09:10:59;;;;;;;3.00;2.70;;;-0.20;1.40;;;1.26;100.00;96833.18;646443;216;36322;-77
2022/01/24 09:13:44;;;;;;;3.33;3.00;;;0.10;1.40;;;0.36;100.00;96840.11;618293;222;32219;-75
2022/01/24 09:16:26;;;;;;;4.37;2.85;;;-0.40;1.40;;;0.25;100.00;96848.13;645676;212;31601;-75
2022/01/24 09:21:42;;;;;;;4.20;2.90;;;-0.20;1.40;;;0.00;100.00;96857.30;619147;226;31923;-74
2022/01/24 09:24:24;;;;;;;2.90;2.40;;;-0.40;1.40;;;0.19;100.00;96848.13;646489;216;42718;-75
2022/01/24 09:29:40;;;;;;;4.57;3.10;;;-0.20;1.40;;;0.24;100.00;96854.84;646319;216;31588;-76
2022/01/24 09:32:22;;;;;;;2.90;2.47;;;-0.20;1.40;;;0.41;100.00;96847.03;646296;216;31585;-74
2022/01/24 09:36:00;;;;;;;4.05;3.75;;;0.10;1.40;;;1.56;100.00;96847.95;647692;214;31567;-80
2022/01/24 09:38:45;;;;;;;2.83;2.50;;;0.80;1.40;;;1.43;100.00;96849.17;617310;226;32018;-74
2022/01/24 09:41:27;;;;;;;2.40;2.30;;;0.60;1.40;;;1.94;100.00;96850.25;645798;216;31567;-74
2022/01/24 09:44:08;;;;;;;3.67;3.30;;;0.80;1.40;;;2.61;100.00;96856.14;619051;222;31873;-77
2022/01/24 09:46:50;;;;;;;2.62;2.37;;;1.10;1.40;;;1.36;100.00;96856.33;646943;216;31708;-76
2022/01/24 09:49:32;;;;;;;1.70;1.60;;;0.50;1.40;;;1.34;100.00;96860.16;618593;222;32314;-75
2022/01/24 09:52:14;;;;;;;2.15;1.65;;;0.60;1.40;;;1.28;100.00;96858.48;645940;212;32159;-77
2022/01/24 09:54:58;;;;;;;4.25;3.60;;;0.70;1.40;;;1.00;100.00;96861.34;647705;216;31581;-77
2022/01/24 09:57:41;;;;;;;3.60;2.60;;;0.70;1.40;;;0.83;100.00;96861.73;646566;216;31683;-75
2022/01/24 10:00:21;;;;;;;4.28;3.35;;;0.50;1.40;;;0.87;100.00;96857.27;645471;216;31894;-77
2022/01/24 10:03:03;;;;;;;2.95;2.75;;;0.90;1.40;;;1.51;100.00;96862.80;644878;216;31688;-75
2022/01/24 10:05:48;;;;;;;4.35;2.72;;;1.30;1.40;;;1.54;100.00;96865.12;619869;226;32022;-75
2022/01/24 10:08:30;;;;;;;3.12;2.83;;;1.30;1.40;;;2.21;100.00;96861.28;619047;226;31959;-76
2022/01/24 10:11:11;;;;;;;5.60;3.92;;;2.00;1.40;;;2.92;100.00;96862.02;645506;216;31992;-75
2022/01/24 10:16:45;;;;;;;4.60;3.10;;;1.70;1.40;;;2.66;100.00;96865.82;619173;226;32310;-78
2022/01/24 10:19:26;;;;;;;4.50;3.78;;;2.70;1.40;;;3.64;100.00;96871.47;645213;216;32279;-75
2022/01/24 10:22:07;;;;;;;4.30;3.60;;;2.70;1.40;;;3.15;100.00;96871.78;645683;212;31603;-77
2022/01/24 10:24:51;;;;;;;5.93;3.63;;;2.80;1.40;;;3.56;100.00;96875.73;647641;212;31580;-75
2022/01/24 10:27:31;;;;;;;8.37;4.07;;;3.10;1.40;;;4.51;100.00;96874.83;647184;212;31603;-75
2022/01/24 10:30:13;;;;;;;7.53;4.68;;;4.60;1.40;;;6.38;100.00;96866.98;645864;212;31776;-76
2022/01/24 10:32:56;;;;;;;6.40;4.30;;;5.90;1.40;;;5.65;100.00;96875.56;646021;212;31549;-76
2022/01/24 10:35:54;;;;;;;6.45;4.45;;;5.10;1.40;;;6.97;100.00;96860.86;646540;216;31618;-75
2022/01/24 10:41:19;;;;;;;7.57;5.23;;;5.50;1.40;;;6.96;100.00;96857.38;646710;212;31728;-76
2022/01/24 10:43:56;;;;;;;9.13;5.30;;;6.20;1.40;;;7.79;100.00;96864.98;619445;222;31895;-75
2022/01/24 10:46:35;;;;;;;7.90;4.57;;;6.70;1.40;;;8.25;100.00;96859.69;647563;212;35604;-76
2022/01/24 10:49:17;;;;;;;7.37;4.45;;;7.20;1.40;;;9.75;97.68;96851.01;646534;212;31773;-75
2022/01/24 10:51:58;;;;;;;6.12;4.25;;;7.90;1.40;;;8.12;99.85;96855.48;631887;221;31822;-75
2022/01/24 10:54:40;;;;;;;5.40;3.90;;;7.20;1.40;;;8.06;97.41;96860.65;646111;216;31847;-77
2022/01/24 10:57:28;;;;;;;6.78;4.43;;;6.90;1.40;;;9.89;94.09;96854.77;646363;216;32514;-75
2022/01/24 11:00:13;;;;;;;7.47;4.50;;;7.30;1.40;;;8.98;91.85;96855.27;646094;216;31716;-76
2022/01/24 11:02:54;;;;;;;6.25;3.92;;;5.80;1.40;;;9.36;94.86;96850.55;647312;216;31574;-77
2022/01/24 11:05:36;;;;;;;6.15;4.47;;;6.50;1.40;;;7.95;100.00;96855.20;646527;216;31706;-75
2022/01/24 11:10:58;;;;;;;5.72;3.83;;;4.60;1.40;;;4.60;100.00;96851.56;619581;226;31876;-79
2022/01/24 11:13:43;;;;;;;4.85;3.60;;;3.10;1.40;;;4.36;100.00;96854.45;646180;216;42789;-76
2022/01/24 11:16:29;;;;;;;4.18;3.47;;;4.50;1.40;;;4.41;100.00;96848.94;648267;212;31598;-80
2022/01/24 11:19:25;;;;;;;6.83;4.27;;;3.50;1.40;;;4.36;100.00;96850.91;631735;222;31877;-77
2022/01/24 11:22:01;;;;;;;4.60;3.60;;;3.40;1.40;;;4.87;100.00;96841.73;646861;212;31564;-79
2022/01/24 11:24:54;;;;;;;6.53;3.90;;;3.90;1.40;;;4.62;100.00;96833.58;646435;216;31638;-76
2022/01/24 11:27:30;;;;;;;6.03;3.50;;;4.70;1.40;;;7.53;100.00;96834.57;647843;216;31573;-77
2022/01/24 11:30:14;;;;;;;7.97;4.63;;;7.20;1.40;;;7.52;100.00;96831.97;647404;216;42250;-75
2022/01/24 11:33:02;;;;;;;4.50;3.40;;;7.90;1.40;;;11.53;95.07;96816.83;618668;222;31934;-77
2022/01/24 11:35:54;;;;;;;4.28;3.00;;;10.30;1.40;;;10.49;75.79;96817.73;645311;212;32091;-76
2022/01/24 11:41:22;;;;;;;4.15;2.92;;;7.50;1.40;;;10.90;80.15;96815.34;647088;216;32281;-79
2022/01/24 11:44:08;;;;;;;4.53;2.95;;;8.80;1.40;;;14.57;67.79;96810.65;647190;216;32077;-76
2022/01/24 11:46:52;;;;;;;4.30;2.53;;;9.30;1.40;;;10.59;77.52;96816.16;646392;216;31678;-75
2022/01/24 11:49:34;;;;;;;4.15;2.92;;;8.00;1.40;;;10.36;79.40;96815.35;647565;212;31527;-75
2022/01/24 11:52:18;;;;;;;3.58;2.78;;;8.10;1.40;;;9.61;79.57;96816.69;645825;216;31563;-75
2022/01/24 11:55:16;;;;;;;4.72;2.70;;;6.80;1.40;;;8.04;91.18;96819.38;619340;226;31897;-75
2022/01/24 11:58:00;;;;;;;2.75;2.10;;;7.80;1.40;;;9.72;88.56;96813.35;645566;212;31919;-75
2022/01/24 12:00:44;;;;;;;3.55;2.60;;;8.30;1.40;;;9.75;77.07;96806.92;646636;212;31634;-75
2022/01/24 12:03:26;;;;;;;3.70;2.83;;;7.60;1.40;;;9.34;87.51;96807.23;646773;212;31570;-75
2022/01/24 12:06:14;;;;;;;2.58;2.00;;;7.70;1.40;;;6.81;90.14;96806.08;643457;216;32271;-75
2022/01/24 12:08:51;;;;;;;3.30;2.60;;;5.40;1.40;;;6.78;100.00;96801.78;646671;212;31645;-75
2022/01/24 12:11:37;;;;;;;3.10;2.12;;;5.90;1.40;;;6.84;100.00;96801.70;649329;216;31633;-79
2022/01/24 12:14:24;;;;;;;2.60;2.05;;;6.10;1.40;;;7.45;99.32;96804.80;645722;212;31639;-75
2022/01/24 12:17:09;;;;;;;2.50;2.20;;;6.60;1.40;;;6.83;100.00;96811.56;618505;226;31858;-77
2022/01/24 12:19:46;;;;;;;3.50;2.80;;;5.80;1.40;;;7.07;100.00;96801.16;646426;216;42326;-77
2022/01/24 12:22:33;;;;;;;4.30;2.58;;;6.70;1.40;;;7.34;100.00;96794.43;631058;222;39988;-76
2022/01/24 12:25:21;;;;;;;4.95;2.90;;;7.20;1.40;;;9.69;94.30;96788.38;646340;216;33270;-80
2022/01/24 12:28:16;;;;;;;6.03;3.90;;;8.90;1.40;;;12.67;75.83;96785.16;645247;212;31772;-76
2022/01/24 12:31:04;;;;;;;5.68;3.78;;;9.80;1.40;;;13.17;71.37;96780.17;642669;216;31775;-76
2022/01/24 12:35:51;;;;;;;5.45;4.03;;;9.60;1.40;;;13.31;74.48;96775.33;646647;216;31601;-75
2022/01/24 12:41:28;;;;;;;3.97;3.10;;;10.30;1.40;;;13.51;61.36;96773.94;647597;216;31609;-79
2022/01/24 12:47:10;;;;;;;5.72;3.15;;;8.40;1.40;;;12.55;73.98;96773.09;647276;212;31569;-77
2022/01/24 12:49:58;;;;;;;6.15;3.72;;;8.50;1.40;;;11.39;74.16;96775.52;646629;216;31565;-76
2022/01/24 12:52:43;;;;;;;4.53;3.70;;;8.00;1.40;;;12.12;73.93;96773.94;645858;216;31597;-77
2022/01/24 12:55:27;;;;;;;4.62;3.58;;;8.00;1.40;;;12.10;77.19;96773.03;647000;216;31557;-78
2022/01/24 12:58:10;;;;;;;5.47;3.47;;;7.70;1.40;;;9.49;77.73;96773.77;646183;216;31582;-75
2022/01/24 13:00:55;;;;;;;5.95;4.30;;;7.00;1.40;;;10.00;85.71;96771.85;618058;226;32452;-76
2022/01/24 13:03:48;;;;;;;5.53;3.40;;;7.10;1.40;;;8.88;89.07;96771.44;646287;212;32134;-75
2022/01/24 13:06:33;;;;;;;5.83;4.10;;;6.70;1.40;;;10.67;84.04;96764.92;642141;216;31732;-75
2022/01/24 13:09:18;;;;;;;5.10;4.00;;;7.50;1.40;;;9.96;78.37;96763.17;620761;222;32119;-78
2022/01/24 13:12:03;;;;;;;4.22;3.45;;;8.30;1.40;;;10.21;81.17;96764.81;647440;216;31598;-76
2022/01/24 13:14:47;;;;;;;4.45;3.50;;;8.00;1.40;;;10.84;82.54;96752.51;646456;216;31644;-76
2022/01/24 13:21:03;;;;;;;5.57;2.90;;;7.30;1.40;;;9.77;89.17;96743.28;615367;224;32112;-75
2022/01/24 13:23:23;;;;;;;6.30;3.70;;;8.30;1.40;;;11.55;77.67;96738.77;646055;216;31626;-76
2022/01/24 13:25:59;;;;;;;5.50;3.58;;;8.80;1.40;;;11.04;75.25;96735.29;648075;212;31572;-79
2022/01/24 13:28:41;;;;;;;4.12;3.70;;;8.90;1.40;;;13.15;74.33;96725.95;619994;226;32066;-79
2022/01/24 13:31:23;;;;;;;5.95;3.42;;;10.50;1.40;;;12.41;63.90;96730.80;648102;212;31668;-79
2022/01/24 13:35:53;;;;;;;3.33;2.80;;;10.90;1.40;;;13.09;65.77;96723.23;618747;226;31938;-75
2022/01/24 13:38:35;;;;;;;4.30;2.95;;;10.20;1.40;;;11.21;68.53;96734.06;647174;216;31572;-76
2022/01/24 13:41:19;;;;;;;5.15;3.17;;;8.40;1.40;;;11.58;71.79;96736.84;618225;226;31886;-76
2022/01/24 13:44:05;;;;;;;6.90;2.90;;;9.00;1.40;;;15.30;60.05;96727.59;619642;226;32179;-77
2022/01/24 13:46:47;;;;;;;3.33;2.90;;;10.70;1.40;;;14.99;63.59;96723.77;632253;222;31747;-78